sensor_id;sensor_type;location;lat;lon;timestamp;pressure;altitude;pressure_sealevel;temperature;humidity
53940;BME280;39850;43.324;21.916;2022-10-16T02:47:17;999.0;;;9.6;80.0
53940;BME280;39850;43.324;21.916;2022-10-16T02:51:53;999.0;;;9.6;80.0
53940;BME280;39850;43.324;21.916;2022-10-16T02:56:31;999.0;;;9.6;80.0
53940;BME280;39850;43.324;21.916;2022-10-16T03:01:07;999.0;;;9.6;80.0
53940;BME280;39850;43.324;21.916;2022-10-16T03:05:45;999.0;;;9.6;80.0
53940;BME280;39850;43.324;21.916;2022-10-16T03:10:22;999.0;;;9.6;80.0
53940;BME280;39850;43.324;21.916;2022-10-16T03:14:59;999.0;;;9.6;80.0
53940;BME280;39850;43.324;21.916;2022-10-16T05:29:28;1000.0;;;8.9;81.0
53940;BME280;39850;43.324;21.916;2022-10-16T05:34:06;1000.0;;;8.9;81.0
53940;BME280;39850;43.324;21.916;2022-10-16T05:38:43;1000.0;;;9.3;81.0
53940;BME280;39850;43.324;21.916;2022-10-16T05:43:21;1000.0;;;9.3;81.0
53940;BME280;39850;43.324;21.916;2022-10-16T05:47:58;1000.0;;;9.3;81.0
53940;BME280;39850;43.324;21.916;2022-10-16T05:52:35;1000.0;;;9.3;81.0
53940;BME280;39850;43.324;21.916;2022-10-16T05:57:12;1000.0;;;9.7;81.0
53940;BME280;39850;43.324;21.916;2022-10-16T06:01:49;1000.0;;;9.7;81.0
53940;BME280;39850;43.324;21.916;2022-10-16T06:38:59;1000.0;;;10.6;79.0
53940;BME280;39850;43.324;21.916;2022-10-16T06:43:36;1000.0;;;10.6;79.0
53940;BME280;39850;43.324;21.916;2022-10-16T06:48:13;1000.0;;;10.8;78.0
53940;BME280;39850;43.324;21.916;2022-10-16T06:52:49;1000.0;;;10.8;78.0
53940;BME280;39850;43.324;21.916;2022-10-16T06:57:27;1001.0;;;10.9;77.0
53940;BME280;39850;43.324;21.916;2022-10-16T07:02:03;1001.0;;;10.9;77.0
53940;BME280;39850;43.324;21.916;2022-10-16T07:06:41;1001.0;;;11.1;76.0
53940;BME280;39850;43.324;21.916;2022-10-16T07:11:24;1001.0;;;11.1;76.0
53940;BME280;39850;43.324;21.916;2022-10-16T07:16:11;1001.0;;;11.1;76.0
53940;BME280;39850;43.324;21.916;2022-10-16T07:20:48;1001.0;;;11.3;75.0
53940;BME280;39850;43.324;21.916;2022-10-16T07:25:25;1001.0;;;11.3;75.0
53940;BME280;39850;43.324;21.916;2022-10-16T07:57:50;1001.0;;;17.7;57.0
53940;BME280;39850;43.324;21.916;2022-10-16T08:02:26;1001.0;;;17.7;57.0
53940;BME280;39850;43.324;21.916;2022-10-16T08:07:03;1001.0;;;18.0;56.0
53940;BME280;39850;43.324;21.916;2022-10-16T08:11:39;1001.0;;;18.0;56.0
53940;BME280;39850;43.324;21.916;2022-10-16T08:16:16;1001.0;;;18.0;56.0
53940;BME280;39850;43.324;21.916;2022-10-16T08:20:59;1001.0;;;18.2;55.0
53940;BME280;39850;43.324;21.916;2022-10-16T08:25:38;1001.0;;;18.2;55.0
53940;BME280;39850;43.324;21.916;2022-10-16T08:30:24;1001.0;;;18.2;55.0
53940;BME280;39850;43.324;21.916;2022-10-16T08:35:01;1001.0;;;18.2;55.0
53940;BME280;39850;43.324;21.916;2022-10-16T08:39:38;1001.0;;;18.2;54.0
53940;BME280;39850;43.324;21.916;2022-10-16T08:45:23;1001.0;;;18.2;54.0
53940;BME280;39850;43.324;21.916;2022-10-16T09:21:35;1001.0;;;19.1;53.0
53940;BME280;39850;43.324;21.916;2022-10-16T09:26:19;1001.0;;;19.1;53.0
53940;BME280;39850;43.324;21.916;2022-10-16T09:30:56;1001.0;;;19.1;54.0
53940;BME280;39850;43.324;21.916;2022-10-16T09:35:50;1001.0;;;19.1;54.0
53940;BME280;39850;43.324;21.916;2022-10-16T09:40:42;1001.0;;;19.1;53.0
53940;BME280;39850;43.324;21.916;2022-10-16T09:45:25;1001.0;;;19.1;53.0
53940;BME280;39850;43.324;21.916;2022-10-16T09:50:28;1001.0;;;19.0;53.0
53940;BME280;39850;43.324;21.916;2022-10-16T09:55:19;1001.0;;;19.0;53.0
53940;BME280;39850;43.324;21.916;2022-10-16T10:00:10;1001.0;;;18.9;52.0
53940;BME280;39850;43.324;21.916;2022-10-16T10:04:55;1001.0;;;18.9;52.0
53940;BME280;39850;43.324;21.916;2022-10-16T10:39:16;1000.0;;;20.0;51.0
53940;BME280;39850;43.324;21.916;2022-10-16T10:44:42;1000.0;;;20.0;51.0
53940;BME280;39850;43.324;21.916;2022-10-16T10:50:20;1000.0;;;20.0;50.0
53940;BME280;39850;43.324;21.916;2022-10-16T10:55:37;1000.0;;;20.0;50.0
53940;BME280;39850;43.324;21.916;2022-10-16T11:00:57;1000.0;;;20.0;50.0
53940;BME280;39850;43.324;21.916;2022-10-16T11:06:04;1000.0;;;20.0;50.0
53940;BME280;39850;43.324;21.916;2022-10-16T11:11:05;1000.0;;;20.0;49.0
53940;BME280;39850;43.324;21.916;2022-10-16T11:16:15;1000.0;;;20.0;49.0
53940;BME280;39850;43.324;21.916;2022-10-16T11:21:16;1000.0;;;20.0;50.0
53940;BME280;39850;43.324;21.916;2022-10-16T11:26:19;1000.0;;;20.0;50.0
53940;BME280;39850;43.324;21.916;2022-10-16T12:01:53;999.0;;;20.0;47.0
53940;BME280;39850;43.324;21.916;2022-10-16T12:06:58;999.0;;;20.0;47.0
53940;BME280;39850;43.324;21.916;2022-10-16T12:11:40;999.0;;;20.0;47.0
53940;BME280;39850;43.324;21.916;2022-10-16T12:16:24;999.0;;;20.0;47.0
53940;BME280;39850;43.324;21.916;2022-10-16T12:21:04;999.0;;;20.0;47.0
53940;BME280;39850;43.324;21.916;2022-10-16T12:25:41;999.0;;;20.0;47.0
53940;BME280;39850;43.324;21.916;2022-10-16T12:30:35;999.0;;;20.0;47.0
53940;BME280;39850;43.324;21.916;2022-10-16T12:35:33;999.0;;;20.0;47.0
53940;BME280;39850;43.324;21.916;2022-10-16T12:40:34;999.0;;;20.0;48.0
53940;BME280;39850;43.324;21.916;2022-10-16T12:45:34;999.0;;;20.0;48.0
53940;BME280;39850;43.324;21.916;2022-10-16T13:22:02;999.0;;;20.0;48.0
53940;BME280;39850;43.324;21.916;2022-10-16T13:27:10;999.0;;;20.0;48.0
53940;BME280;39850;43.324;21.916;2022-10-16T13:32:15;999.0;;;19.5;45.0
53940;BME280;39850;43.324;21.916;2022-10-16T13:36:54;999.0;;;19.5;45.0
53940;BME280;39850;43.324;21.916;2022-10-16T13:41:31;999.0;;;19.1;43.0
53940;BME280;39850;43.324;21.916;2022-10-16T13:46:20;999.0;;;19.1;43.0
53940;BME280;39850;43.324;21.916;2022-10-16T13:51:12;999.0;;;19.0;42.0
53940;BME280;39850;43.324;21.916;2022-10-16T13:55:51;999.0;;;19.0;42.0
53940;BME280;39850;43.324;21.916;2022-10-16T14:00:29;999.0;;;19.1;43.0
53940;BME280;39850;43.324;21.916;2022-10-16T14:05:14;999.0;;;19.1;43.0
53940;BME280;39850;43.324;21.916;2022-10-16T14:39:04;1000.0;;;18.0;44.0
53940;BME280;39850;43.324;21.916;2022-10-16T14:43:44;1000.0;;;18.0;44.0
53940;BME280;39850;43.324;21.916;2022-10-16T14:48:22;1000.0;;;18.0;45.0
53940;BME280;39850;43.324;21.916;2022-10-16T14:53:00;1000.0;;;18.0;45.0
53940;BME280;39850;43.324;21.916;2022-10-16T14:57:42;1000.0;;;18.0;45.0
53940;BME280;39850;43.324;21.916;2022-10-16T15:02:35;1000.0;;;18.0;45.0
53940;BME280;39850;43.324;21.916;2022-10-16T15:07:12;1000.0;;;18.0;45.0
53940;BME280;39850;43.324;21.916;2022-10-16T15:11:49;1000.0;;;18.0;46.0
53940;BME280;39850;43.324;21.916;2022-10-16T15:16:26;1000.0;;;18.0;46.0
53940;BME280;39850;43.324;21.916;2022-10-16T15:21:04;1000.0;;;18.1;46.0
53940;BME280;39850;43.324;21.916;2022-10-16T15:25:52;1000.0;;;18.1;46.0
53940;BME280;39850;43.324;21.916;2022-10-16T16:02:54;1000.0;;;17.3;48.0
53940;BME280;39850;43.324;21.916;2022-10-16T16:07:34;1000.0;;;17.3;48.0
53940;BME280;39850;43.324;21.916;2022-10-16T16:12:11;1000.0;;;17.0;48.0
53940;BME280;39850;43.324;21.916;2022-10-16T16:16:48;1000.0;;;17.0;48.0
53940;BME280;39850;43.324;21.916;2022-10-16T16:21:25;1000.0;;;16.7;48.0
53940;BME280;39850;43.324;21.916;2022-10-16T16:26:23;1000.0;;;16.7;48.0
53940;BME280;39850;43.324;21.916;2022-10-16T16:31:03;1000.0;;;16.4;48.0
53940;BME280;39850;43.324;21.916;2022-10-16T16:35:40;1000.0;;;16.4;48.0
53940;BME280;39850;43.324;21.916;2022-10-16T16:40:16;1000.0;;;16.2;48.0
53940;BME280;39850;43.324;21.916;2022-10-16T16:44:54;1000.0;;;16.2;48.0
53940;BME280;39850;43.324;21.916;2022-10-16T17:31:28;1001.0;;;15.4;51.0
53940;BME280;39850;43.324;21.916;2022-10-16T17:36:10;1001.0;;;15.4;51.0
53940;BME280;39850;43.324;21.916;2022-10-16T17:40:47;1001.0;;;15.4;51.0
53940;BME280;39850;43.324;21.916;2022-10-16T17:45:24;1001.0;;;15.4;51.0
53940;BME280;39850;43.324;21.916;2022-10-16T17:50:02;1001.0;;;15.4;51.0
53940;BME280;39850;43.324;21.916;2022-10-16T17:54:38;1001.0;;;15.4;51.0
53940;BME280;39850;43.324;21.916;2022-10-16T17:59:16;1001.0;;;15.5;52.0
53940;BME280;39850;43.324;21.916;2022-10-16T18:04:04;1001.0;;;15.5;52.0
53940;BME280;39850;43.324;21.916;2022-10-16T18:08:41;1001.0;;;15.5;52.0
53940;BME280;39850;43.324;21.916;2022-10-16T18:50:18;1002.0;;;15.5;56.0
53940;BME280;39850;43.324;21.916;2022-10-16T18:54:56;1002.0;;;15.5;56.0
53940;BME280;39850;43.324;21.916;2022-10-16T18:59:34;1002.0;;;15.2;56.0
53940;BME280;39850;43.324;21.916;2022-10-16T19:04:17;1002.0;;;15.2;56.0
53940;BME280;39850;43.324;21.916;2022-10-16T19:08:56;1002.0;;;15.2;56.0
53940;BME280;39850;43.324;21.916;2022-10-16T19:13:36;1002.0;;;15.2;56.0
53940;BME280;39850;43.324;21.916;2022-10-16T19:18:13;1002.0;;;15.2;56.0
53940;BME280;39850;43.324;21.916;2022-10-16T19:22:50;1002.0;;;14.9;56.0
53940;BME280;39850;43.324;21.916;2022-10-16T19:27:27;1002.0;;;14.9;56.0
53940;BME280;39850;43.324;21.916;2022-10-16T20:00:13;1003.0;;;13.7;62.0
53940;BME280;39850;43.324;21.916;2022-10-16T20:04:50;1003.0;;;13.7;62.0
53940;BME280;39850;43.324;21.916;2022-10-16T20:09:26;1003.0;;;13.7;62.0
53940;BME280;39850;43.324;21.916;2022-10-16T20:14:06;1003.0;;;13.7;62.0
53940;BME280;39850;43.324;21.916;2022-10-16T20:18:44;1003.0;;;13.7;62.0
53940;BME280;39850;43.324;21.916;2022-10-16T20:23:24;1003.0;;;13.3;62.0
53940;BME280;39850;43.324;21.916;2022-10-16T20:28:00;1003.0;;;13.3;62.0
53940;BME280;39850;43.324;21.916;2022-10-16T20:32:37;1003.0;;;12.9;63.0
53940;BME280;39850;43.324;21.916;2022-10-16T20:37:14;1003.0;;;12.9;63.0
53940;BME280;39850;43.324;21.916;2022-10-16T20:41:51;1003.0;;;12.9;63.0
53940;BME280;39850;43.324;21.916;2022-10-16T20:46:29;1003.0;;;12.9;63.0
53940;BME280;39850;43.324;21.916;2022-10-16T21:32:47;1004.0;;;11.6;70.0
53940;BME280;39850;43.324;21.916;2022-10-16T21:37:24;1004.0;;;11.6;70.0
53940;BME280;39850;43.324;21.916;2022-10-16T21:42:00;1004.0;;;11.6;70.0
53940;BME280;39850;43.324;21.916;2022-10-16T21:46:45;1004.0;;;11.6;70.0
53940;BME280;39850;43.324;21.916;2022-10-16T21:51:35;1004.0;;;11.6;70.0
53940;BME280;39850;43.324;21.916;2022-10-16T21:56:17;1004.0;;;11.6;70.0
53940;BME280;39850;43.324;21.916;2022-10-16T22:00:54;1004.0;;;11.6;70.0
53940;BME280;39850;43.324;21.916;2022-10-16T22:05:34;1004.0;;;11.6;70.0
53940;BME280;39850;43.324;21.916;2022-10-16T22:51:47;1004.0;;;11.8;73.0
53940;BME280;39850;43.324;21.916;2022-10-16T22:56:26;1004.0;;;11.8;73.0
53940;BME280;39850;43.324;21.916;2022-10-16T23:01:24;1004.0;;;11.8;72.0
53940;BME280;39850;43.324;21.916;2022-10-16T23:06:05;1004.0;;;11.8;72.0
53940;BME280;39850;43.324;21.916;2022-10-16T23:10:48;1004.0;;;11.8;72.0
53940;BME280;39850;43.324;21.916;2022-10-16T23:15:25;1004.0;;;11.8;72.0
53940;BME280;39850;43.324;21.916;2022-10-16T23:20:04;1005.0;;;11.8;72.0
53940;BME280;39850;43.324;21.916;2022-10-16T23:24:41;1005.0;;;11.8;72.0
53940;BME280;39850;43.324;21.916;2022-10-16T23:29:18;1005.0;;;11.8;72.0
